Time;durP1;ratioP1;P1;durP2;ratioP2;P2;SDS_P1;SDS_P2;PMS_P1;PMS_P2;Temp;Humidity;BMP_temperature;BMP_pressure;BME280_temperature;BME280_humidity;BME280_pressure;Samples;Min_cycle;Max_cycle;Signal;HPM_P1;HPM_P2
2022/06/20 00:02:22;;;;;;;7.75;0.80;;;13.80;99.90;;;;;;5072293;28;20037;-78
2022/06/20 00:04:50;;;;;;;5.28;0.60;;;13.70;99.90;;;;;;5064004;28;20037;-78
2022/06/20 00:07:18;;;;;;;4.65;0.60;;;13.70;99.90;;;;;;5045394;28;20074;-78
2022/06/20 00:09:44;;;;;;;5.30;0.60;;;13.60;99.90;;;;;;5063630;28;20045;-78
2022/06/20 00:12:22;;;;;;;5.22;0.60;;;13.60;99.90;;;;;;5061009;28;20055;-79
2022/06/20 00:14:56;;;;;;;7.38;0.68;;;13.50;99.90;;;;;;5064619;28;20456;-78
2022/06/20 00:17:22;;;;;;;5.70;0.47;;;13.50;99.90;;;;;;5065597;28;20487;-78
2022/06/20 00:19:49;;;;;;;3.55;0.50;;;13.50;99.90;;;;;;5035870;28;20048;-78
2022/06/20 00:22:15;;;;;;;7.20;0.50;;;13.50;99.90;;;;;;5062366;28;20052;-78
2022/06/20 00:24:42;;;;;;;3.78;0.40;;;13.50;99.90;;;;;;5068571;28;20044;-78
2022/06/20 00:27:08;;;;;;;4.03;0.50;;;13.50;99.90;;;;;;5032938;28;20037;-78
2022/06/20 00:29:36;;;;;;;5.53;0.70;;;13.50;99.90;;;;;;5082284;28;20032;-78
2022/06/20 00:32:05;;;;;;;4.72;0.70;;;13.50;99.90;;;;;;5042142;28;20033;-78
2022/06/20 00:34:32;;;;;;;5.22;0.60;;;13.50;99.90;;;;;;5049857;28;20064;-77
2022/06/20 00:36:58;;;;;;;5.65;0.60;;;13.50;99.90;;;;;;5058974;28;20392;-78
2022/06/20 00:39:25;;;;;;;3.92;0.77;;;13.50;99.90;;;;;;5053965;28;20033;-78
2022/06/20 00:41:52;;;;;;;6.75;0.50;;;13.50;99.90;;;;;;5059791;28;20395;-75
2022/06/20 00:44:27;;;;;;;4.38;0.60;;;13.50;99.90;;;;;;5055358;28;20031;-76
2022/06/20 00:47:26;;;;;;;4.45;0.60;;;13.50;99.90;;;;;;5062747;28;20143;-75
2022/06/20 00:50:22;;;;;;;7.22;0.68;;;13.50;99.90;;;;;;5062611;28;20040;-76
2022/06/20 00:53:31;;;;;;;5.15;0.70;;;13.50;99.90;;;;;;5063852;28;20040;-76
2022/06/20 00:56:28;;;;;;;4.60;0.55;;;13.50;99.90;;;;;;5060219;28;20048;-75
2022/06/20 00:59:17;;;;;;;4.30;0.50;;;13.50;99.90;;;;;;5067691;28;20510;-76
2022/06/20 01:02:06;;;;;;;5.53;0.50;;;13.50;99.90;;;;;;5059651;28;20040;-76
2022/06/20 01:04:59;;;;;;;4.75;0.93;;;13.50;99.90;;;;;;5064436;28;20384;-76
2022/06/20 01:08:00;;;;;;;5.50;0.50;;;13.50;99.90;;;;;;5075398;28;20036;-76
2022/06/20 01:11:13;;;;;;;3.30;0.40;;;13.50;99.90;;;;;;5062427;28;20386;-78
2022/06/20 01:13:58;;;;;;;5.20;0.68;;;13.50;99.90;;;;;;5060269;28;20044;-78
2022/06/20 01:16:43;;;;;;;4.75;0.65;;;13.50;99.90;;;;;;5065825;28;20379;-78
2022/06/20 01:19:42;;;;;;;3.67;0.60;;;13.50;99.90;;;;;;5063891;28;20047;-78
2022/06/20 01:22:40;;;;;;;5.53;0.60;;;13.50;99.90;;;;;;5065887;28;20408;-78
2022/06/20 01:25:39;;;;;;;2.78;0.40;;;13.50;99.90;;;;;;5066574;28;20052;-78
2022/06/20 01:28:28;;;;;;;2.63;0.40;;;13.60;99.90;;;;;;5058055;28;20138;-78
2022/06/20 01:31:17;;;;;;;4.43;0.60;;;13.60;99.90;;;;;;5075624;28;20059;-78
2022/06/20 01:34:03;;;;;;;5.43;0.50;;;13.60;99.90;;;;;;5074855;28;20063;-78
2022/06/20 01:40:10;;;;;;;6.63;0.50;;;13.60;99.90;;;;;;5073582;28;20047;-78
2022/06/20 01:42:55;;;;;;;6.60;0.50;;;13.60;99.90;;;;;;5080486;28;20047;-79
2022/06/20 01:45:57;;;;;;;3.58;0.38;;;13.60;99.90;;;;;;5059463;28;20044;-78
2022/06/20 01:48:46;;;;;;;4.90;0.70;;;13.50;99.90;;;;;;5057080;28;20727;-78
2022/06/20 01:51:39;;;;;;;7.20;0.63;;;13.50;99.90;;;;;;5071315;28;20458;-78
2022/06/20 01:54:28;;;;;;;4.70;0.60;;;13.40;99.90;;;;;;5060684;28;20357;-78
2022/06/20 01:57:15;;;;;;;3.33;0.40;;;13.40;99.90;;;;;;5070982;28;20384;-78
2022/06/20 02:00:05;;;;;;;4.35;0.52;;;13.40;99.90;;;;;;5056261;28;20044;-78
2022/06/20 02:02:59;;;;;;;6.57;0.68;;;13.30;99.90;;;;;;5061337;28;20035;-78
2022/06/20 02:05:48;;;;;;;5.00;0.63;;;13.20;99.90;;;;;;5069590;28;20048;-78
2022/06/20 02:08:36;;;;;;;3.83;0.43;;;13.20;99.90;;;;;;5065620;28;20036;-79
2022/06/20 02:11:26;;;;;;;6.57;0.60;;;13.10;99.90;;;;;;5063398;28;20116;-76
2022/06/20 02:14:28;;;;;;;6.72;0.63;;;13.10;99.90;;;;;;5080794;28;20039;-76
2022/06/20 02:17:21;;;;;;;4.75;0.70;;;13.10;99.90;;;;;;5054467;28;20398;-76
2022/06/20 02:20:12;;;;;;;3.03;0.45;;;13.10;99.90;;;;;;5065812;28;20059;-76
2022/06/20 02:22:59;;;;;;;4.80;0.50;;;13.00;99.90;;;;;;5061881;28;20047;-76
2022/06/20 02:25:45;;;;;;;4.57;0.43;;;13.00;99.90;;;;;;5062876;28;20363;-76
2022/06/20 02:28:40;;;;;;;3.65;0.50;;;13.00;99.90;;;;;;5066418;28;20043;-76
2022/06/20 02:31:25;;;;;;;4.65;0.50;;;13.00;99.90;;;;;;5082788;28;20036;-76
2022/06/20 02:34:11;;;;;;;4.25;0.50;;;13.00;99.90;;;;;;5068336;28;20052;-76
2022/06/20 02:37:01;;;;;;;7.25;0.60;;;13.10;99.90;;;;;;5064505;28;20051;-76
2022/06/20 02:39:49;;;;;;;3.08;0.70;;;13.10;99.90;;;;;;5071950;28;20047;-76
2022/06/20 02:42:59;;;;;;;2.97;0.52;;;13.10;99.90;;;;;;5050374;28;20391;-76
2022/06/20 02:45:45;;;;;;;5.68;0.70;;;13.20;99.90;;;;;;5065359;28;21040;-76
2022/06/20 02:48:33;;;;;;;5.95;0.60;;;13.30;99.90;;;;;;5068081;28;20625;-76
2022/06/20 02:51:24;;;;;;;2.65;0.70;;;13.30;99.90;;;;;;5069596;28;20383;-76
2022/06/20 02:54:12;;;;;;;6.00;0.50;;;13.30;99.90;;;;;;5063562;28;20049;-75
2022/06/20 02:57:20;;;;;;;4.50;0.52;;;13.30;99.90;;;;;;5067616;28;20052;-75
2022/06/20 03:00:14;;;;;;;3.67;0.50;;;13.40;99.90;;;;;;5068748;28;20032;-78
2022/06/20 03:03:05;;;;;;;4.57;0.40;;;13.50;99.90;;;;;;5065437;28;20040;-78
2022/06/20 03:05:50;;;;;;;6.15;0.60;;;13.50;99.90;;;;;;5084126;28;20032;-78
2022/06/20 03:08:36;;;;;;;3.05;0.43;;;13.60;99.90;;;;;;5053424;28;20381;-76
2022/06/20 03:11:23;;;;;;;4.07;0.60;;;13.60;99.90;;;;;;5066711;28;20048;-76
2022/06/20 03:14:16;;;;;;;2.72;0.43;;;13.60;99.90;;;;;;5084323;28;20056;-76
2022/06/20 03:17:04;;;;;;;2.50;0.40;;;13.60;99.90;;;;;;5055032;28;20036;-76
2022/06/20 03:19:54;;;;;;;3.20;0.55;;;13.60;99.90;;;;;;5070675;28;20048;-76
2022/06/20 03:23:10;;;;;;;2.92;0.40;;;13.60;99.90;;;;;;5073054;28;20039;-76
2022/06/20 03:25:58;;;;;;;1.30;0.30;;;13.60;99.90;;;;;;5067507;28;20056;-77
2022/06/20 03:28:43;;;;;;;2.25;0.50;;;13.60;99.90;;;;;;5072566;28;20044;-76
2022/06/20 03:31:28;;;;;;;4.07;0.50;;;13.60;99.90;;;;;;5065850;28;20454;-76
2022/06/20 03:34:14;;;;;;;2.13;0.60;;;13.50;99.90;;;;;;5063090;28;20060;-76
2022/06/20 03:37:02;;;;;;;3.00;1.15;;;13.40;99.90;;;;;;5053815;28;20055;-77
2022/06/20 03:39:48;;;;;;;3.83;0.90;;;13.30;99.90;;;;;;5049359;28;20051;-76
2022/06/20 03:42:33;;;;;;;4.97;0.60;;;13.20;99.90;;;;;;5067830;28;20039;-76
2022/06/20 03:45:20;;;;;;;3.63;0.47;;;13.20;99.90;;;;;;5064387;28;20067;-77
2022/06/20 03:48:13;;;;;;;4.47;0.80;;;13.10;99.90;;;;;;5081265;28;20040;-76
2022/06/20 03:51:03;;;;;;;5.10;0.60;;;13.00;99.90;;;;;;5079889;28;20044;-76
2022/06/20 03:54:02;;;;;;;5.70;0.60;;;13.00;99.90;;;;;;5066545;28;20471;-76
2022/06/20 03:57:09;;;;;;;4.30;0.80;;;13.00;99.90;;;;;;5078355;28;20043;-77
2022/06/20 04:00:04;;;;;;;1.88;0.40;;;12.90;99.90;;;;;;5069467;28;20044;-76
2022/06/20 04:03:08;;;;;;;2.13;0.60;;;12.80;99.90;;;;;;5064577;28;20052;-76
2022/06/20 04:06:01;;;;;;;3.30;0.60;;;12.80;99.90;;;;;;5063265;28;20048;-76
2022/06/20 04:12:40;;;;;;;1.85;0.50;;;12.80;99.90;;;;;;5064203;28;20056;-76
2022/06/20 04:15:45;;;;;;;3.72;0.50;;;12.90;99.90;;;;;;5042889;28;20388;-76
2022/06/20 04:18:46;;;;;;;2.50;0.50;;;12.90;99.90;;;;;;5079121;28;20482;-76
2022/06/20 04:21:45;;;;;;;2.33;0.50;;;13.00;99.90;;;;;;5060985;28;20044;-76
2022/06/20 04:24:41;;;;;;;5.85;0.70;;;13.10;99.90;;;;;;5064981;28;20048;-76
2022/06/20 04:27:45;;;;;;;5.57;0.70;;;13.30;99.90;;;;;;5080753;28;20036;-76
2022/06/20 04:30:46;;;;;;;6.45;0.50;;;13.50;99.90;;;;;;5064740;28;20056;-76
2022/06/20 04:33:38;;;;;;;3.80;0.70;;;13.70;99.90;;;;;;5076709;28;20060;-76
2022/06/20 04:36:47;;;;;;;5.30;0.70;;;13.80;99.90;;;;;;5061637;28;20059;-76
2022/06/20 04:39:44;;;;;;;7.22;0.60;;;13.90;99.90;;;;;;5059651;28;20056;-76
2022/06/20 04:43:01;;;;;;;8.63;0.75;;;14.00;99.90;;;;;;5083972;28;20514;-76
2022/06/20 04:45:56;;;;;;;3.75;0.60;;;14.10;99.90;;;;;;5070180;28;20035;-76
2022/06/20 04:48:43;;;;;;;3.58;0.60;;;14.20;99.90;;;;;;5082428;28;20063;-76
2022/06/20 04:51:35;;;;;;;4.68;0.50;;;14.30;99.90;;;;;;5065172;28;20055;-76
2022/06/20 04:54:21;;;;;;;7.60;1.20;;;14.40;99.90;;;;;;5068723;28;20391;-76
2022/06/20 04:57:10;;;;;;;4.47;0.50;;;14.40;99.90;;;;;;5062146;28;20040;-77
2022/06/20 04:59:59;;;;;;;3.15;0.50;;;14.50;99.90;;;;;;5066643;28;20051;-77
2022/06/20 05:02:46;;;;;;;5.05;0.70;;;14.50;99.90;;;;;;5074614;28;20036;-76
2022/06/20 05:05:39;;;;;;;4.07;0.52;;;14.70;99.90;;;;;;5071636;28;20055;-77
2022/06/20 05:08:31;;;;;;;5.22;0.68;;;14.80;99.90;;;;;;5078152;28;20495;-77
2022/06/20 05:11:31;;;;;;;5.43;1.25;;;15.00;99.90;;;;;;5067004;28;20060;-77
2022/06/20 05:14:23;;;;;;;6.60;0.55;;;15.10;99.90;;;;;;5059057;28;20039;-77
2022/06/20 05:17:17;;;;;;;4.63;0.60;;;15.20;99.90;;;;;;5062320;28;20048;-77
2022/06/20 05:20:38;;;;;;;4.13;0.60;;;15.30;99.90;;;;;;5073267;28;20057;-77
2022/06/20 05:23:29;;;;;;;2.83;0.60;;;15.40;99.90;;;;;;5067636;28;20506;-77
2022/06/20 05:26:18;;;;;;;2.50;0.60;;;15.70;99.90;;;;;;5074062;28;20036;-77
2022/06/20 05:29:06;;;;;;;3.00;0.50;;;16.00;99.90;;;;;;5077144;28;20108;-77
2022/06/20 05:31:53;;;;;;;3.53;0.50;;;16.30;99.90;;;;;;5060810;28;20032;-78
2022/06/20 05:34:56;;;;;;;3.78;0.57;;;16.50;99.90;;;;;;5066603;28;20055;-78
2022/06/20 05:37:55;;;;;;;3.58;0.55;;;16.70;99.90;;;;;;5064712;28;20039;-76
2022/06/20 05:40:35;;;;;;;4.22;0.50;;;16.80;99.90;;;;;;5055592;28;20043;-77
2022/06/20 05:43:01;;;;;;;5.88;0.57;;;16.70;99.90;;;;;;5066804;28;20033;-77
2022/06/20 05:45:30;;;;;;;4.60;0.65;;;16.60;99.90;;;;;;5077513;28;20036;-78
2022/06/20 05:48:00;;;;;;;8.98;3.45;;;16.60;99.90;;;;;;5076956;28;20036;-81
2022/06/20 05:50:41;;;;;;;4.35;0.80;;;16.60;99.90;;;;;;5053936;28;20037;-80
2022/06/20 05:53:24;;;;;;;5.93;2.45;;;16.60;99.90;;;;;;5049349;28;20036;-82
2022/06/20 05:55:56;;;;;;;4.32;0.73;;;16.60;99.90;;;;;;5052379;28;20021;-82
2022/06/20 05:58:28;;;;;;;3.10;0.80;;;16.50;99.90;;;;;;5043688;28;20025;-81
2022/06/20 06:00:58;;;;;;;3.90;0.68;;;16.50;99.90;;;;;;5047469;28;20064;-83
2022/06/20 06:03:39;;;;;;;5.85;0.60;;;16.50;99.90;;;;;;5077494;28;20025;-82
2022/06/20 06:06:14;;;;;;;3.78;0.77;;;16.90;99.90;;;;;;5052476;28;20055;-82
2022/06/20 06:08:53;;;;;;;4.15;0.52;;;17.10;99.90;;;;;;5048427;28;20380;-81
2022/06/20 06:11:43;;;;;;;4.60;0.60;;;17.10;99.90;;;;;;5059930;28;20036;-80
2022/06/20 06:14:37;;;;;;;3.47;1.00;;;17.00;99.90;;;;;;5065489;28;20352;-81
2022/06/20 06:17:27;;;;;;;4.65;0.95;;;16.90;99.90;;;;;;5062154;28;20471;-81
2022/06/20 06:19:58;;;;;;;8.73;0.85;;;17.00;99.90;;;;;;5049531;28;20044;-82
2022/06/20 06:22:38;;;;;;;7.38;0.80;;;17.30;99.90;;;;;;5047681;28;20040;-82
2022/06/20 06:25:27;;;;;;;4.22;0.60;;;17.70;99.90;;;;;;5060593;28;20036;-82
2022/06/20 06:28:19;;;;;;;5.20;0.60;;;18.20;99.90;;;;;;5054122;28;20384;-81
2022/06/20 06:30:53;;;;;;;3.15;0.50;;;18.90;99.90;;;;;;5054034;28;20055;-82
2022/06/20 06:33:37;;;;;;;3.15;0.50;;;19.40;99.90;;;;;;5057059;28;20057;-82
2022/06/20 06:36:11;;;;;;;3.00;0.40;;;19.60;99.90;;;;;;5051217;28;20040;-82
2022/06/20 06:38:52;;;;;;;4.82;0.60;;;19.60;99.90;;;;;;5049658;28;20399;-82
2022/06/20 06:41:23;;;;;;;2.13;0.40;;;19.70;99.90;;;;;;5068292;28;21003;-81
2022/06/20 06:43:54;;;;;;;4.80;0.43;;;19.80;99.90;;;;;;5041444;28;20480;-81
2022/06/20 06:46:31;;;;;;;3.08;0.60;;;20.00;99.90;;;;;;5064850;28;20777;-81
2022/06/20 06:49:14;;;;;;;5.18;0.65;;;20.20;99.90;;;;;;5066650;28;20043;-82
2022/06/20 06:51:51;;;;;;;;;;;20.50;99.90;;;;;;5041722;28;20412;-81
2022/06/20 06:54:46;;;;;;;3.65;0.55;;;20.60;99.90;;;;;;5053006;28;19919;-82
2022/06/20 06:57:29;;;;;;;2.30;0.50;;;20.50;99.90;;;;;;5054953;28;20033;-82
2022/06/20 07:00:05;;;;;;;4.03;0.60;;;20.20;99.90;;;;;;5065863;28;20054;-82
2022/06/20 07:02:44;;;;;;;4.25;0.50;;;20.00;99.90;;;;;;5066317;28;20036;-82
2022/06/20 07:05:19;;;;;;;4.95;0.70;;;19.70;99.90;;;;;;5036341;28;20033;-83
2022/06/20 07:07:51;;;;;;;4.65;0.55;;;19.50;99.90;;;;;;5051683;28;20040;-78
2022/06/20 07:10:30;;;;;;;2.80;0.55;;;19.10;99.90;;;;;;5047459;28;20036;-78
2022/06/20 07:13:10;;;;;;;2.83;0.82;;;18.70;99.90;;;;;;5049790;28;20088;-78
2022/06/20 07:15:38;;;;;;;4.20;0.80;;;18.40;99.90;;;;;;5061162;28;20040;-78
2022/06/20 07:18:12;;;;;;;3.83;0.50;;;18.10;99.90;;;;;;5051432;28;20045;-78
2022/06/20 07:20:44;;;;;;;4.75;0.70;;;17.90;99.90;;;;;;5059917;28;20029;-77
2022/06/20 07:23:16;;;;;;;4.88;0.82;;;18.00;99.90;;;;;;5041964;28;20060;-78
2022/06/20 07:25:52;;;;;;;2.78;0.80;;;18.10;99.90;;;;;;5067985;28;20041;-77
2022/06/20 07:28:43;;;;;;;8.27;3.72;;;18.20;99.90;;;;;;5064785;28;20052;-78
2022/06/20 07:31:18;;;;;;;5.25;2.08;;;18.30;99.90;;;;;;5089047;28;20037;-77
2022/06/20 07:34:05;;;;;;;5.57;1.13;;;18.10;99.90;;;;;;5046091;28;20471;-79
2022/06/20 07:36:45;;;;;;;3.92;0.88;;;17.90;99.90;;;;;;5087805;28;20048;-81
2022/06/20 07:39:29;;;;;;;4.90;0.95;;;17.80;99.90;;;;;;5052610;28;20052;-80
2022/06/20 07:42:02;;;;;;;4.03;0.70;;;18.00;99.90;;;;;;5066659;28;20031;-79
2022/06/20 07:44:42;;;;;;;6.10;2.45;;;18.30;99.90;;;;;;5071278;28;20033;-81
2022/06/20 07:47:16;;;;;;;4.90;1.27;;;18.60;99.90;;;;;;5070184;28;20484;-80
2022/06/20 07:49:48;;;;;;;3.40;0.77;;;19.00;99.90;;;;;;5070814;28;20028;-78
2022/06/20 07:52:23;;;;;;;4.20;0.80;;;19.50;99.90;;;;;;5052022;28;20040;-78
2022/06/20 07:54:56;;;;;;;2.58;0.70;;;20.00;99.60;;;;;;5069817;28;20032;-77
2022/06/20 07:57:32;;;;;;;5.45;0.70;;;20.10;98.80;;;;;;5040695;28;20033;-77
2022/06/20 08:00:10;;;;;;;3.03;0.63;;;19.90;98.90;;;;;;5055818;28;20033;-77
2022/06/20 08:02:40;;;;;;;4.32;1.00;;;19.60;98.60;;;;;;5040859;28;20037;-77
2022/06/20 08:05:10;;;;;;;4.78;0.90;;;19.40;99.00;;;;;;5061283;28;20036;-77
2022/06/20 08:07:51;;;;;;;4.00;0.90;;;19.50;98.70;;;;;;5060041;28;20033;-77
2022/06/20 08:10:18;;;;;;;3.03;0.75;;;19.70;98.60;;;;;;5075234;28;20079;-77
2022/06/20 08:13:11;;;;;;;4.03;0.60;;;20.00;97.20;;;;;;5053957;28;20044;-77
2022/06/20 08:16:01;;;;;;;2.78;0.60;;;20.10;96.50;;;;;;5058884;28;20479;-77
2022/06/20 08:18:29;;;;;;;2.80;0.80;;;20.30;95.80;;;;;;5049435;28;20032;-77
2022/06/20 08:21:27;;;;;;;3.83;1.08;;;20.50;95.20;;;;;;5072104;28;20032;-76
2022/06/20 08:24:08;;;;;;;2.78;0.60;;;20.80;94.00;;;;;;5055038;28;20045;-77
2022/06/20 08:26:47;;;;;;;2.85;0.88;;;21.20;93.60;;;;;;5059639;28;20033;-78
2022/06/20 08:29:22;;;;;;;3.45;0.90;;;21.50;92.70;;;;;;5056319;28;20037;-78
2022/06/20 08:31:52;;;;;;;4.28;0.77;;;21.60;92.40;;;;;;5082735;28;21345;-78
2022/06/20 08:34:40;;;;;;;5.03;0.95;;;21.40;91.90;;;;;;5040891;28;20063;-77
2022/06/20 08:37:39;;;;;;;4.32;1.02;;;21.40;91.20;;;;;;5057326;28;20044;-78
2022/06/20 08:40:43;;;;;;;4.60;0.70;;;21.10;90.80;;;;;;5055945;28;20029;-77
2022/06/20 08:43:26;;;;;;;3.20;0.73;;;20.90;91.40;;;;;;5042105;28;20036;-78
2022/06/20 08:46:12;;;;;;;3.42;0.80;;;20.80;91.60;;;;;;5063918;28;20044;-78
2022/06/20 08:49:24;;;;;;;2.80;0.80;;;21.00;91.30;;;;;;5053432;28;20383;-78
2022/06/20 08:52:09;;;;;;;5.28;0.90;;;21.10;91.30;;;;;;5068605;28;20044;-78
2022/06/20 08:55:12;;;;;;;5.20;1.13;;;21.10;91.40;;;;;;5059304;28;20039;-78
2022/06/20 08:58:08;;;;;;;4.40;0.98;;;21.20;91.00;;;;;;5055993;28;20029;-78
2022/06/20 09:00:42;;;;;;;4.07;1.13;;;21.30;90.50;;;;;;5073135;28;20047;-78
2022/06/20 09:03:20;;;;;;;3.80;0.80;;;21.40;89.10;;;;;;5033268;28;20033;-78
2022/06/20 09:06:25;;;;;;;2.80;0.70;;;21.60;88.70;;;;;;5067307;28;20036;-79
2022/06/20 09:09:35;;;;;;;2.33;0.70;;;21.90;88.10;;;;;;5057719;28;20033;-78
2022/06/20 09:12:31;;;;;;;3.28;1.00;;;22.10;85.20;;;;;;5070867;28;20494;-78
2022/06/20 09:15:50;;;;;;;5.40;2.78;;;22.30;84.60;;;;;;5050663;28;20036;-81
2022/06/20 09:18:43;;;;;;;4.75;1.40;;;22.30;82.80;;;;;;5059083;28;20032;-81
2022/06/20 09:21:31;;;;;;;2.65;0.70;;;22.30;82.70;;;;;;5062156;28;20035;-81
2022/06/20 09:24:13;;;;;;;4.10;1.10;;;22.10;84.50;;;;;;5063408;28;20033;-80
2022/06/20 09:27:09;;;;;;;3.97;0.50;;;21.90;84.40;;;;;;5078396;28;20148;-80
2022/06/20 09:29:54;;;;;;;2.60;0.50;;;22.00;84.50;;;;;;5030528;28;20041;-80
2022/06/20 09:32:46;;;;;;;3.50;0.60;;;22.20;82.80;;;;;;5085409;28;20162;-80
2022/06/20 09:35:13;;;;;;;;;;;22.40;82.10;;;;;;5066269;28;20052;-80
2022/06/20 09:38:10;;;;;;;2.75;0.68;;;22.60;81.40;;;;;;5061313;28;19920;-80
2022/06/20 09:41:13;;;;;;;2.72;0.55;;;22.60;81.20;;;;;;5066653;28;20025;-80
2022/06/20 09:44:12;;;;;;;5.43;1.05;;;22.80;81.70;;;;;;5055933;28;20052;-81
2022/06/20 09:47:05;;;;;;;6.03;1.25;;;22.80;80.30;;;;;;5031553;28;20388;-81
2022/06/20 09:49:56;;;;;;;4.47;0.88;;;22.50;79.80;;;;;;5070547;28;20498;-80
2022/06/20 09:52:43;;;;;;;5.75;2.30;;;22.40;79.90;;;;;;5056731;28;20483;-82
2022/06/20 09:55:33;;;;;;;3.63;0.70;;;22.40;80.30;;;;;;5053656;28;20480;-81
2022/06/20 09:58:16;;;;;;;3.13;0.73;;;22.70;79.40;;;;;;5083453;28;20475;-82
2022/06/20 10:00:51;;;;;;;2.95;0.80;;;22.90;79.00;;;;;;5057218;28;20336;-81
2022/06/20 10:03:35;;;;;;;3.85;0.75;;;22.90;78.40;;;;;;5037481;28;20463;-79
2022/06/20 10:06:11;;;;;;;2.50;0.75;;;23.00;77.10;;;;;;5058660;28;20448;-79
2022/06/20 10:09:00;;;;;;;5.28;0.77;;;23.10;77.40;;;;;;5061566;28;20120;-79
2022/06/20 10:11:35;;;;;;;3.00;0.60;;;23.30;77.00;;;;;;5061102;28;20036;-79
2022/06/20 10:14:15;;;;;;;3.00;0.70;;;23.50;77.30;;;;;;5048450;28;20032;-80
2022/06/20 10:17:05;;;;;;;5.03;0.77;;;23.10;77.00;;;;;;5068222;28;20036;-79
2022/06/20 10:19:42;;;;;;;4.30;1.00;;;22.80;77.10;;;;;;5068547;28;20033;-79
2022/06/20 10:22:51;;;;;;;3.63;0.63;;;22.80;77.40;;;;;;5050196;28;20044;-79
2022/06/20 10:25:34;;;;;;;2.13;0.60;;;23.10;75.90;;;;;;5009745;28;20046;-79
2022/06/20 10:28:09;;;;;;;6.40;0.90;;;23.50;74.90;;;;;;5054576;28;20037;-79
2022/06/20 10:30:40;;;;;;;2.42;0.60;;;23.90;74.40;;;;;;5078662;28;20397;-79
2022/06/20 10:33:19;;;;;;;2.50;0.73;;;23.80;73.90;;;;;;5064201;28;20048;-79
2022/06/20 10:35:54;;;;;;;3.05;0.63;;;23.40;74.20;;;;;;5060579;28;20510;-80
2022/06/20 10:38:50;;;;;;;2.65;0.57;;;23.30;74.10;;;;;;5051897;28;20495;-80
2022/06/20 10:41:29;;;;;;;4.10;0.50;;;23.50;73.40;;;;;;5046983;28;20386;-79
2022/06/20 10:44:22;;;;;;;2.47;0.80;;;23.60;73.20;;;;;;5061863;28;20392;-76
2022/06/20 10:47:28;;;;;;;2.45;0.90;;;24.10;72.10;;;;;;5073786;28;20048;-77
2022/06/20 10:50:17;;;;;;;4.40;0.60;;;24.70;69.90;;;;;;4971695;28;20057;-78
2022/06/20 10:52:52;;;;;;;3.50;0.60;;;25.00;68.50;;;;;;5076474;28;20033;-79
2022/06/20 10:56:03;;;;;;;2.03;0.50;;;25.30;67.80;;;;;;5080767;28;20029;-80
2022/06/20 10:59:16;;;;;;;2.67;0.40;;;25.60;65.40;;;;;;5058842;28;20028;-79
2022/06/20 11:01:57;;;;;;;2.40;0.50;;;26.00;64.70;;;;;;5069044;28;20033;-76
2022/06/20 11:04:39;;;;;;;3.75;1.17;;;26.10;63.90;;;;;;5088277;28;20048;-78
2022/06/20 11:07:36;;;;;;;2.33;1.38;;;25.80;61.50;;;;;;5052569;28;20032;-78
2022/06/20 11:11:00;;;;;;;3.42;2.25;;;25.30;62.80;;;;;;5068734;28;20387;-78
2022/06/20 11:13:53;;;;;;;3.58;0.80;;;25.60;62.80;;;;;;5056122;28;20054;-77
2022/06/20 11:16:34;;;;;;;1.98;0.50;;;26.00;62.10;;;;;;5030885;28;20063;-81
2022/06/20 11:19:28;;;;;;;;;;;26.50;61.40;;;;;;5060148;28;20052;-79
2022/06/20 11:22:04;;;;;;;3.33;0.52;;;26.70;61.40;;;;;;5029241;28;19909;-79
2022/06/20 11:24:46;;;;;;;3.45;0.60;;;26.90;60.70;;;;;;5067604;28;20032;-80
2022/06/20 11:28:04;;;;;;;4.55;0.80;;;26.70;59.80;;;;;;5059605;28;20033;-79
2022/06/20 11:31:07;;;;;;;1.83;0.52;;;26.30;60.30;;;;;;5006797;28;20037;-79
2022/06/20 11:34:09;;;;;;;3.40;0.50;;;26.00;61.30;;;;;;5075940;28;20144;-79
2022/06/20 11:36:50;;;;;;;2.42;0.60;;;26.10;61.00;;;;;;5069019;28;20360;-79
2022/06/20 11:39:32;;;;;;;4.95;0.68;;;25.90;60.60;;;;;;5058220;28;20041;-78
2022/06/20 11:42:22;;;;;;;5.43;0.77;;;25.50;60.80;;;;;;5078994;28;20031;-80
2022/06/20 11:45:14;;;;;;;3.60;0.65;;;25.80;61.50;;;;;;5071979;28;20037;-79
2022/06/20 11:48:07;;;;;;;4.13;0.70;;;26.40;60.70;;;;;;5069569;28;20047;-80
2022/06/20 11:50:53;;;;;;;3.20;0.45;;;27.10;57.90;;;;;;5060247;28;20051;-80
2022/06/20 11:53:58;;;;;;;3.22;0.70;;;26.60;57.40;;;;;;5057339;28;20048;-80
2022/06/20 11:56:54;;;;;;;3.20;0.50;;;25.80;58.30;;;;;;5053325;28;20044;-80
2022/06/20 11:59:45;;;;;;;2.17;0.55;;;25.90;59.80;;;;;;5061406;28;20049;-80
2022/06/20 12:02:57;;;;;;;4.22;0.75;;;26.50;59.00;;;;;;5084508;28;20506;-81
2022/06/20 12:05:59;;;;;;;3.57;0.70;;;27.10;56.60;;;;;;5081749;28;20044;-80
2022/06/20 12:08:29;;;;;;;;;;;27.90;55.10;;;;;;5053025;28;20271;-80
2022/06/20 12:10:58;;;;;;;3.13;0.82;;;28.80;54.90;;;;;;5059887;28;19916;-80
2022/06/20 12:13:37;;;;;;;2.17;0.50;;;29.30;54.00;;;;;;5051726;28;20043;-81
2022/06/20 12:16:25;;;;;;;2.25;0.68;;;29.30;53.90;;;;;;5078313;28;20035;-81
2022/06/20 12:24:48;;;;;;;3.75;0.50;;;29.00;53.10;;;;;;5074232;28;20045;-82
2022/06/20 12:27:18;;;;;;;2.40;0.45;;;29.40;52.80;;;;;;5064387;28;20045;-82
2022/06/20 12:29:47;;;;;;;1.88;0.68;;;30.10;51.40;;;;;;5045862;28;20047;-82
2022/06/20 12:32:31;;;;;;;5.07;0.70;;;30.40;50.10;;;;;;5077102;28;20041;-82
2022/06/20 12:35:39;;;;;;;2.45;0.63;;;29.90;49.40;;;;;;5061880;28;20043;-83
2022/06/20 12:38:11;;;;;;;2.75;0.40;;;29.00;50.30;;;;;;5037811;28;20048;-82
2022/06/20 12:40:48;;;;;;;2.15;0.50;;;28.20;51.80;;;;;;5083855;28;20468;-79
2022/06/20 12:43:19;;;;;;;3.33;1.52;;;27.60;52.70;;;;;;5055891;28;20040;-82
2022/06/20 12:46:03;;;;;;;32.83;29.23;;;26.90;53.80;;;;;;5066812;28;20044;-80
2022/06/20 12:48:54;;;;;;;7.70;4.50;;;26.50;54.90;;;;;;5081021;28;20032;-81
2022/06/20 12:51:33;;;;;;;5.40;2.30;;;26.50;55.70;;;;;;5070104;28;20037;-80
2022/06/20 12:54:46;;;;;;;3.78;1.40;;;26.50;55.00;;;;;;5059619;28;20043;-82
2022/06/20 12:57:53;;;;;;;5.18;1.10;;;26.40;55.00;;;;;;5052264;28;20460;-81
2022/06/20 13:01:10;;;;;;;3.15;0.80;;;26.30;55.30;;;;;;5063261;28;20375;-80
2022/06/20 13:04:17;;;;;;;3.17;0.60;;;27.10;54.60;;;;;;5024017;28;20396;-80
2022/06/20 13:07:40;;;;;;;3.78;0.60;;;27.50;54.10;;;;;;5063167;28;20053;-81
2022/06/20 13:10:50;;;;;;;3.53;0.70;;;27.80;53.30;;;;;;5064448;28;20329;-80
2022/06/20 13:13:49;;;;;;;4.22;0.80;;;27.80;53.70;;;;;;5063089;28;20045;-80
2022/06/20 13:16:40;;;;;;;3.13;0.60;;;27.80;54.40;;;;;;5055268;28;20040;-80
2022/06/20 13:19:33;;;;;;;3.28;0.70;;;28.40;53.70;;;;;;5065103;28;20036;-80
2022/06/20 13:22:19;;;;;;;4.75;0.68;;;28.20;53.60;;;;;;5044589;28;20369;-80
2022/06/20 13:24:58;;;;;;;4.97;1.00;;;28.10;54.20;;;;;;5076466;28;20033;-80
2022/06/20 13:27:43;;;;;;;5.10;0.50;;;29.20;53.70;;;;;;5074771;28;20089;-80
2022/06/20 13:30:35;;;;;;;2.45;0.55;;;29.70;51.90;;;;;;5068290;28;20025;-81
2022/06/20 13:33:43;;;;;;;3.45;0.60;;;29.40;52.40;;;;;;5089948;28;20047;-79
2022/06/20 13:36:43;;;;;;;3.03;0.63;;;29.50;52.30;;;;;;5059436;28;20037;-79
2022/06/20 13:39:30;;;;;;;5.07;0.70;;;30.00;52.00;;;;;;5061508;28;20049;-80
2022/06/20 13:42:22;;;;;;;2.63;0.68;;;30.50;51.20;;;;;;5065204;28;20032;-80
2022/06/20 13:45:11;;;;;;;5.28;0.90;;;30.70;50.10;;;;;;5063590;28;20029;-80
2022/06/20 13:48:17;;;;;;;3.00;0.73;;;31.40;49.60;;;;;;5061165;28;20049;-80
2022/06/20 13:51:01;;;;;;;4.28;0.70;;;31.30;48.50;;;;;;5059563;28;20033;-80
2022/06/20 13:53:51;;;;;;;4.35;0.70;;;30.40;49.60;;;;;;5081790;28;20049;-80
2022/06/20 13:56:24;;;;;;;3.05;0.50;;;29.40;50.80;;;;;;5069476;28;20033;-80
2022/06/20 13:59:03;;;;;;;3.03;0.60;;;29.00;51.90;;;;;;5063633;28;20037;-80
2022/06/20 14:01:59;;;;;;;2.90;0.80;;;30.00;50.60;;;;;;5066213;28;20033;-79
2022/06/20 14:04:29;;;;;;;2.45;0.68;;;29.80;50.50;;;;;;5048071;28;20609;-80
2022/06/20 14:06:59;;;;;;;3.20;0.70;;;28.90;51.50;;;;;;5072190;28;20375;-80
2022/06/20 14:09:46;;;;;;;5.53;0.70;;;28.40;52.70;;;;;;5060497;28;20033;-80
2022/06/20 14:12:42;;;;;;;2.97;0.70;;;28.60;53.60;;;;;;5062340;28;20032;-80
2022/06/20 14:15:32;;;;;;;2.50;0.50;;;29.30;52.40;;;;;;5030731;28;20032;-80
2022/06/20 14:18:05;;;;;;;1.90;0.60;;;29.30;51.30;;;;;;5058286;28;20039;-81
2022/06/20 14:20:44;;;;;;;3.92;0.65;;;28.60;52.20;;;;;;5082280;28;20029;-81
2022/06/20 14:23:19;;;;;;;2.88;0.85;;;27.80;53.40;;;;;;5064167;28;20037;-81
2022/06/20 14:25:52;;;;;;;2.63;0.65;;;27.20;54.30;;;;;;5047682;28;20922;-80
2022/06/20 14:28:21;;;;;;;2.35;0.50;;;26.80;55.30;;;;;;5070903;28;20368;-88
2022/06/20 14:30:52;;;;;;;5.03;0.65;;;27.70;54.60;;;;;;5059434;28;20041;-81
2022/06/20 14:33:23;;;;;;;;;;;28.80;52.20;;;;;;5064875;28;20051;-79
2022/06/20 14:35:59;;;;;;;3.05;0.80;;;28.60;51.70;;;;;;5074248;28;19908;-79
2022/06/20 14:38:25;;;;;;;3.17;0.82;;;28.10;52.20;;;;;;5077969;28;20040;-79
2022/06/20 14:44:12;;;;;;;3.25;0.50;;;27.00;53.50;;;;;;5072448;28;20059;-80
2022/06/20 14:47:06;;;;;;;1.95;0.40;;;26.10;54.20;;;;;;5077419;28;20029;-79